Time;durP1;ratioP1;P1;durP2;ratioP2;P2;SDS_P1;SDS_P2;PMS_P1;PMS_P2;Temp;Humidity;BMP_temperature;BMP_pressure;BME280_temperature;BME280_humidity;BME280_pressure;Samples;Min_cycle;Max_cycle;Signal;HPM_P1;HPM_P2
2023/05/19 00:01:25;;;;;;;5.78;2.55;;;12.00;55.80;;;15.18;39.28;98118.53;4972052;28;20039;-46
2023/05/19 00:03:56;;;;;;;7.90;3.05;;;12.00;56.00;;;15.12;39.48;98114.72;4972154;28;20502;-46
2023/05/19 00:06:26;;;;;;;5.32;3.20;;;12.00;56.00;;;15.08;39.62;98115.22;4971426;28;20051;-46
2023/05/19 00:09:03;;;;;;;5.32;2.83;;;11.90;56.50;;;15.02;39.58;98115.94;4972104;28;20046;-49
2023/05/19 00:11:32;;;;;;;4.53;2.65;;;11.90;57.00;;;14.98;39.80;98112.78;4972123;28;20399;-47
2023/05/19 00:14:01;;;;;;;6.47;2.73;;;11.90;56.60;;;14.96;39.80;98112.13;4970860;28;20051;-47
2023/05/19 00:16:30;;;;;;;4.32;2.40;;;11.90;56.20;;;14.96;39.87;98101.41;4971731;28;20034;-46
2023/05/19 00:19:00;;;;;;;5.87;2.70;;;11.90;56.20;;;14.97;39.71;98105.75;4971988;28;20410;-50
2023/05/19 00:21:30;;;;;;;4.60;2.55;;;12.00;55.80;;;14.94;39.90;98109.59;4971852;28;20046;-46
2023/05/19 00:23:58;;;;;;;4.93;2.90;;;12.10;55.90;;;14.92;39.84;98110.81;4971740;28;20506;-46
2023/05/19 00:26:26;;;;;;;5.97;2.97;;;12.00;56.00;;;14.87;40.02;98103.31;4953960;28;20050;-46
2023/05/19 00:28:59;;;;;;;;;;;12.00;56.50;;;14.96;39.50;98101.41;4954554;28;20047;-46
2023/05/19 00:31:27;;;;;;;5.68;2.40;;;12.00;57.60;;;14.91;39.89;98103.78;4971680;28;19937;-48
2023/05/19 00:33:55;;;;;;;4.70;2.67;;;11.90;56.40;;;14.84;40.32;98100.16;4971016;28;20066;-49
2023/05/19 00:36:23;;;;;;;3.57;2.87;;;11.80;56.50;;;14.82;40.03;98108.34;4970329;28;20046;-45
2023/05/19 00:38:51;;;;;;;6.53;2.72;;;11.80;56.70;;;14.77;40.12;98095.50;4967878;28;20047;-46
2023/05/19 00:41:19;;;;;;;4.77;3.00;;;11.80;56.90;;;14.76;40.21;98093.81;4973303;28;20498;-47
2023/05/19 00:43:48;;;;;;;5.20;2.83;;;11.80;56.80;;;14.74;40.29;98086.97;4974356;28;20055;-48
2023/05/19 00:46:15;;;;;;;6.80;3.00;;;11.70;57.10;;;14.68;40.66;98098.41;4957711;28;20047;-48
2023/05/19 00:48:44;;;;;;;9.20;3.33;;;11.60;57.60;;;14.57;40.71;98096.94;4966283;28;20051;-47
2023/05/19 00:51:15;;;;;;;5.13;2.92;;;11.50;57.80;;;14.57;40.69;98097.78;4957323;28;20066;-46
2023/05/19 00:53:47;;;;;;;4.27;2.60;;;11.50;57.80;;;14.60;40.64;98098.44;4975667;28;20039;-48
2023/05/19 00:56:16;;;;;;;4.53;2.97;;;11.50;57.70;;;14.60;40.77;98091.25;4957818;28;20526;-45
2023/05/19 00:58:44;;;;;;;4.88;3.15;;;11.60;57.60;;;14.61;40.72;98094.75;4957767;28;20050;-44
2023/05/19 01:01:13;;;;;;;4.60;3.53;;;11.60;57.40;;;14.65;40.66;98091.53;4965137;28;20046;-47
2023/05/19 01:03:42;;;;;;;7.10;2.92;;;11.70;57.40;;;14.66;40.70;98090.53;4973898;28;20057;-46
2023/05/19 01:06:10;;;;;;;5.80;2.73;;;11.70;57.50;;;14.66;40.68;98090.53;4957543;28;20049;-48
2023/05/19 01:08:39;;;;;;;6.33;3.10;;;11.70;57.70;;;14.65;40.69;98088.03;4975152;28;20039;-45
2023/05/19 01:11:07;;;;;;;6.17;3.07;;;11.70;57.70;;;14.62;40.88;98091.03;4973042;28;20046;-46
2023/05/19 01:13:35;;;;;;;5.85;2.63;;;11.60;57.90;;;14.62;40.89;98089.22;4965254;28;20058;-47
2023/05/19 01:16:34;;;;;;;5.93;2.70;;;11.50;58.10;;;14.58;40.85;98090.59;4957186;28;20054;-47
2023/05/19 01:19:32;;;;;;;5.23;2.63;;;11.50;59.10;;;14.54;40.86;98090.06;4953552;29;20491;-46
2023/05/19 01:22:41;;;;;;;6.13;2.70;;;11.50;58.90;;;14.51;40.99;98087.72;4970008;28;20049;-45
2023/05/19 01:25:18;;;;;;;5.77;3.03;;;11.40;59.00;;;14.53;40.96;98098.28;4956809;28;20511;-46
2023/05/19 01:28:19;;;;;;;5.03;2.63;;;11.50;58.80;;;14.51;41.13;98092.25;4956973;28;20077;-48
2023/05/19 01:30:52;;;;;;;4.18;2.55;;;11.50;58.90;;;14.52;40.97;98097.44;4969051;28;20051;-45
2023/05/19 01:33:22;;;;;;;5.30;2.30;;;11.50;58.10;;;14.51;41.40;98094.94;4957458;28;20307;-49
2023/05/19 01:35:50;;;;;;;7.23;2.60;;;11.50;58.40;;;14.51;41.36;98084.22;4973441;28;20434;-45
2023/05/19 01:38:19;;;;;;;6.33;3.17;;;11.50;58.30;;;14.52;41.27;98089.41;4956983;28;20047;-47
2023/05/19 01:40:49;;;;;;;7.57;2.93;;;11.60;58.50;;;14.52;41.32;98085.88;4972831;28;20057;-49
2023/05/19 01:43:22;;;;;;;7.68;3.47;;;11.60;58.70;;;14.52;41.36;98083.19;4974808;28;20499;-44
2023/05/19 01:45:50;;;;;;;4.32;2.53;;;11.50;58.90;;;14.49;41.33;98083.56;4974639;28;20051;-48
2023/05/19 01:48:19;;;;;;;5.43;3.15;;;11.50;59.00;;;14.49;41.06;98083.56;4956995;28;20078;-46
2023/05/19 01:50:47;;;;;;;6.37;2.97;;;11.50;58.90;;;14.48;41.50;98088.09;4956844;28;20050;-48
2023/05/19 01:53:15;;;;;;;7.90;3.17;;;11.50;59.00;;;14.46;41.58;98089.25;4973490;28;20047;-47
2023/05/19 01:55:49;;;;;;;5.17;2.57;;;11.40;59.10;;;14.45;41.54;98090.28;4964569;28;20054;-45
2023/05/19 01:58:49;;;;;;;6.88;3.30;;;11.40;59.50;;;14.43;41.58;98093.13;4974107;28;20039;-48
2023/05/19 02:01:43;;;;;;;7.32;3.30;;;11.40;60.00;;;14.42;41.55;98086.09;4956795;28;20062;-47
2023/05/19 02:04:42;;;;;;;4.93;2.70;;;11.40;60.20;;;14.40;41.54;98089.97;4956521;28;20052;-47
2023/05/19 02:07:42;;;;;;;11.30;5.07;;;11.40;59.90;;;14.42;41.86;98090.63;4972253;28;20066;-46
2023/05/19 02:10:29;;;;;;;4.33;3.17;;;11.40;60.20;;;14.39;41.32;98086.47;4972712;28;20046;-45
2023/05/19 02:13:03;;;;;;;6.00;2.60;;;11.30;60.70;;;14.38;42.02;98087.47;4956236;28;20070;-49
2023/05/19 02:15:40;;;;;;;4.82;2.83;;;11.30;60.20;;;14.36;41.95;98093.00;4965990;28;20053;-44
2023/05/19 02:18:10;;;;;;;5.23;2.97;;;11.30;60.50;;;14.35;41.97;98094.00;4955832;28;20046;-48
2023/05/19 02:20:39;;;;;;;4.70;2.70;;;11.30;60.30;;;14.34;42.00;98088.81;4955512;28;20050;-46
2023/05/19 02:23:07;;;;;;;6.97;3.10;;;11.20;60.40;;;14.31;42.05;98090.00;4972258;28;20098;-47
2023/05/19 02:25:35;;;;;;;4.90;2.97;;;11.20;60.50;;;14.29;42.11;98078.63;4973811;28;20038;-44
2023/05/19 02:28:02;;;;;;;3.30;2.60;;;11.20;60.50;;;14.31;42.20;98097.22;4956389;28;20059;-46
2023/05/19 02:30:31;;;;;;;6.47;3.23;;;11.20;60.70;;;14.29;42.14;98094.72;4973239;28;20067;-47
2023/05/19 02:33:00;;;;;;;4.30;2.23;;;11.20;60.20;;;14.32;42.17;98102.38;4973488;28;20035;-46
2023/05/19 02:35:27;;;;;;;9.73;2.90;;;11.20;60.30;;;14.33;42.06;98105.91;4971719;28;20050;-48
2023/05/19 02:37:56;;;;;;;4.70;2.40;;;11.20;60.50;;;14.32;42.17;98099.69;4963751;28;20050;-49
2023/05/19 02:40:23;;;;;;;4.68;2.75;;;11.20;60.40;;;14.31;42.16;98098.03;4955388;28;20118;-47
2023/05/19 02:42:51;;;;;;;10.87;5.70;;;11.20;60.20;;;14.35;42.27;98091.31;4973398;28;20050;-45
2023/05/19 02:45:18;;;;;;;4.60;3.20;;;11.30;60.30;;;14.37;42.29;98089.31;4971229;28;20047;-46
2023/05/19 02:47:46;;;;;;;5.00;3.17;;;11.30;60.30;;;14.41;42.32;98086.28;4963233;28;20058;-49
2023/05/19 02:50:14;;;;;;;7.37;2.97;;;11.30;60.50;;;14.39;42.27;98083.78;4955343;28;20051;-47
2023/05/19 02:52:41;;;;;;;5.70;3.10;;;11.20;60.20;;;14.38;42.15;98082.09;4956454;28;20585;-46
2023/05/19 02:55:09;;;;;;;9.70;2.97;;;11.30;60.40;;;14.38;42.34;98079.41;4971714;28;20400;-47
2023/05/19 02:57:37;;;;;;;6.47;2.80;;;11.30;60.60;;;14.40;42.36;98077.41;4971922;28;20051;-47
2023/05/19 03:00:06;;;;;;;4.33;2.50;;;11.30;60.60;;;14.41;42.36;98075.56;4963345;28;20047;-46
2023/05/19 03:02:34;;;;;;;6.23;2.70;;;11.30;60.60;;;14.39;42.39;98070.38;4971056;28;20379;-46
2023/05/19 03:05:02;;;;;;;6.93;2.83;;;11.30;60.70;;;14.37;42.13;98078.59;4971940;28;20047;-46
2023/05/19 03:07:32;;;;;;;6.68;2.70;;;11.30;60.50;;;14.35;42.37;98082.47;4955960;28;20399;-45
2023/05/19 03:10:02;;;;;;;3.63;2.60;;;11.20;60.60;;;14.30;42.50;98074.94;4963228;28;20533;-44
2023/05/19 03:12:31;;;;;;;4.17;2.57;;;11.10;61.00;;;14.27;42.31;98074.44;4960882;28;20519;-46
2023/05/19 03:14:59;;;;;;;6.18;3.65;;;11.10;61.20;;;14.22;42.34;98074.97;4968697;28;20055;-45
2023/05/19 03:17:32;;;;;;;4.97;4.10;;;11.10;60.90;;;14.18;42.64;98070.97;4972491;28;20046;-45
2023/05/19 03:20:00;;;;;;;4.93;3.00;;;11.10;60.90;;;14.17;42.58;98078.19;4972676;28;20053;-44
2023/05/19 03:22:28;;;;;;;5.90;3.00;;;11.10;61.10;;;14.19;42.57;98070.00;4972629;28;20290;-46
2023/05/19 03:24:57;;;;;;;3.10;2.60;;;11.10;61.00;;;14.20;42.52;98068.13;4972436;28;20046;-47
2023/05/19 03:27:24;;;;;;;5.83;2.90;;;11.20;60.70;;;14.18;42.53;98066.47;4971074;28;20058;-46
2023/05/19 03:29:52;;;;;;;7.60;3.95;;;11.20;60.70;;;14.19;42.58;98067.31;4954659;28;20051;-48
2023/05/19 03:32:21;;;;;;;6.00;3.03;;;11.10;60.70;;;14.22;42.59;98071.47;4955057;28;20047;-45
2023/05/19 03:34:48;;;;;;;7.77;2.80;;;11.20;60.90;;;14.21;42.53;98072.47;4972441;28;20061;-44
2023/05/19 03:37:16;;;;;;;6.53;3.07;;;11.10;60.80;;;14.18;42.72;98065.63;4954910;28;20070;-45
2023/05/19 03:39:44;;;;;;;5.83;2.60;;;11.10;61.10;;;14.20;42.59;98070.81;4952263;28;20086;-47
2023/05/19 03:42:12;;;;;;;5.57;2.50;;;11.10;60.70;;;14.18;42.74;98070.97;4954837;28;20051;-45
2023/05/19 03:44:40;;;;;;;3.37;2.73;;;11.10;61.10;;;14.18;42.82;98068.31;4971999;28;20047;-45
2023/05/19 03:47:08;;;;;;;5.90;2.40;;;11.10;61.20;;;14.17;42.69;98070.16;4970815;28;20042;-46
2023/05/19 03:49:54;;;;;;;5.13;2.50;;;11.10;61.20;;;14.14;42.88;98072.34;4972413;28;20066;-47
2023/05/19 03:53:00;;;;;;;5.97;3.00;;;11.00;61.50;;;14.12;42.89;98082.41;4963368;28;20058;-45
2023/05/19 03:55:31;;;;;;;4.33;2.70;;;11.00;61.50;;;14.09;42.69;98078.19;4947671;28;20054;-45
2023/05/19 03:57:58;;;;;;;5.30;2.83;;;11.00;61.60;;;14.05;42.88;98076.06;4972259;28;20495;-47
2023/05/19 04:00:26;;;;;;;7.47;3.00;;;11.00;61.70;;;14.02;42.95;98079.09;4971918;28;20046;-47
2023/05/19 04:02:54;;;;;;;5.00;2.60;;;10.90;61.70;;;13.97;43.06;98080.41;4954159;28;20051;-48
2023/05/19 04:05:22;;;;;;;5.00;2.93;;;10.90;61.50;;;13.94;43.14;98080.78;4954090;28;20070;-48
2023/05/19 04:07:49;;;;;;;6.63;3.33;;;10.90;61.90;;;13.92;43.22;98081.94;4970845;28;20054;-47
2023/05/19 04:10:18;;;;;;;6.00;2.57;;;10.90;62.00;;;13.91;43.57;98088.31;4969809;28;20058;-48
2023/05/19 04:12:46;;;;;;;7.43;3.67;;;10.80;62.00;;;13.90;43.15;98097.31;4954325;28;20050;-47
2023/05/19 04:15:15;;;;;;;7.60;2.77;;;10.80;62.00;;;13.89;43.10;98093.81;4961599;28;20511;-46
2023/05/19 04:17:43;;;;;;;6.20;3.20;;;10.80;62.00;;;13.88;43.33;98088.63;4953879;28;20058;-45
2023/05/19 04:20:12;;;;;;;4.63;2.77;;;10.80;62.00;;;13.88;43.28;98092.16;4970660;28;20135;-47
2023/05/19 04:22:40;;;;;;;6.77;3.37;;;10.80;62.10;;;13.89;43.38;98091.16;4972044;28;20055;-45
2023/05/19 04:25:08;;;;;;;5.80;2.77;;;10.80;62.20;;;13.91;43.33;98099.00;4962043;28;20534;-45
2023/05/19 04:27:37;;;;;;;4.30;2.70;;;10.80;62.20;;;13.89;43.28;98096.50;4971586;28;20050;-46
2023/05/19 04:30:06;;;;;;;3.50;2.70;;;10.80;62.20;;;13.88;43.40;98091.31;4970645;28;20051;-48
2023/05/19 04:32:36;;;;;;;6.77;3.03;;;10.80;62.40;;;13.89;43.27;98095.69;4953872;28;20047;-45
2023/05/19 04:35:05;;;;;;;5.80;2.83;;;10.90;62.20;;;13.90;43.32;98095.50;4953847;28;20411;-46
2023/05/19 04:37:36;;;;;;;5.30;3.10;;;10.90;62.40;;;13.88;43.34;98092.16;4970247;28;20164;-45
2023/05/19 04:40:08;;;;;;;7.50;3.10;;;10.80;62.50;;;13.89;43.58;98098.34;4953393;28;20208;-46
2023/05/19 04:42:40;;;;;;;3.80;2.57;;;10.80;62.50;;;13.90;43.55;98097.31;4954042;28;20411;-45
2023/05/19 04:45:08;;;;;;;4.77;3.10;;;10.80;62.80;;;13.89;43.68;98098.34;4970906;28;20107;-49
2023/05/19 04:47:40;;;;;;;6.07;2.83;;;10.80;62.90;;;13.91;43.53;98101.69;4953839;28;20054;-44
2023/05/19 04:50:09;;;;;;;5.60;2.90;;;10.80;63.10;;;13.90;43.70;98100.88;4961989;28;20047;-49
2023/05/19 04:52:37;;;;;;;4.93;2.60;;;10.80;63.00;;;13.89;43.32;98099.19;4946155;28;20051;-51
2023/05/19 04:55:06;;;;;;;5.67;2.80;;;10.90;62.30;;;13.91;43.50;98101.69;4953201;28;20050;-47
2023/05/19 04:57:34;;;;;;;4.43;3.43;;;10.90;62.40;;;13.92;43.63;98093.50;4954112;28;20055;-46
2023/05/19 05:00:06;;;;;;;3.90;2.63;;;10.90;62.70;;;13.95;43.57;98097.66;4970022;28;20134;-49
2023/05/19 05:02:45;;;;;;;4.55;3.10;;;10.90;62.80;;;14.02;43.58;98097.81;4954573;28;20047;-45
2023/05/19 05:05:19;;;;;;;4.38;3.00;;;11.00;62.80;;;14.10;43.64;98101.31;4953689;28;20054;-44
2023/05/19 05:07:48;;;;;;;5.30;2.90;;;11.00;63.00;;;14.13;43.46;98103.66;4953726;28;20051;-47
2023/05/19 05:10:15;;;;;;;5.60;2.70;;;11.10;62.50;;;14.19;43.30;98099.44;4953303;28;20503;-46
2023/05/19 05:12:43;;;;;;;3.93;2.70;;;11.20;62.00;;;14.27;43.22;98103.91;4970415;28;20058;-46
2023/05/19 05:15:12;;;;;;;6.50;3.20;;;11.20;62.20;;;14.33;43.37;98104.06;4971236;28;20483;-44
2023/05/19 05:17:40;;;;;;;5.17;2.90;;;11.30;62.10;;;14.38;43.13;98099.03;4953034;28;20051;-45
2023/05/19 05:20:10;;;;;;;9.30;3.05;;;11.30;61.70;;;14.43;43.48;98097.66;4961128;28;20043;-48
2023/05/19 05:22:38;;;;;;;7.30;3.20;;;11.40;62.00;;;14.51;43.18;98094.94;4970404;28;20055;-47
2023/05/19 05:25:09;;;;;;;5.93;3.00;;;11.50;61.80;;;14.57;43.29;98094.25;4961858;28;20073;-48
2023/05/19 05:27:37;;;;;;;4.77;3.33;;;11.60;61.80;;;14.57;43.27;98103.13;4955564;28;20054;-46
2023/05/19 05:30:07;;;;;;;5.35;2.83;;;11.60;61.60;;;14.60;43.01;98098.44;4956775;28;20063;-46
2023/05/19 05:32:35;;;;;;;7.20;2.93;;;11.60;62.10;;;14.63;43.06;98101.59;4956671;28;20420;-47
2023/05/19 05:35:08;;;;;;;6.93;2.70;;;11.60;60.90;;;14.68;42.92;98101.09;4957248;28;20055;-46
2023/05/19 05:37:36;;;;;;;6.50;2.97;;;11.60;60.60;;;14.69;42.69;98098.19;4957464;28;20055;-46
2023/05/19 05:40:05;;;;;;;6.60;3.67;;;11.70;60.30;;;14.68;42.91;98101.91;4973132;28;20061;-50
2023/05/19 05:42:34;;;;;;;4.70;2.72;;;11.80;60.10;;;14.69;43.02;98103.56;4958138;28;20042;-45
2023/05/19 05:45:03;;;;;;;5.37;3.43;;;11.80;60.40;;;14.70;42.94;98093.72;4956532;28;20047;-48
2023/05/19 05:47:31;;;;;;;6.40;3.50;;;11.80;60.50;;;14.75;42.83;98104.72;4964607;28;20415;-46
2023/05/19 05:50:00;;;;;;;7.22;3.30;;;11.90;60.30;;;14.76;43.00;98103.72;4964785;28;20057;-48
2023/05/19 05:52:29;;;;;;;4.70;3.90;;;11.90;60.40;;;14.80;42.89;98101.53;4956676;28;20415;-45
2023/05/19 05:55:00;;;;;;;4.10;3.20;;;11.90;60.60;;;14.87;42.90;98107.81;4956912;28;20058;-45
2023/05/19 05:57:34;;;;;;;7.55;2.80;;;11.90;60.50;;;14.88;42.92;98107.66;4956794;28;20061;-45
2023/05/19 06:00:08;;;;;;;8.30;3.50;;;12.00;60.40;;;14.90;42.71;98108.31;4956669;28;20055;-47
2023/05/19 06:02:46;;;;;;;5.30;2.87;;;12.10;60.10;;;14.90;42.89;98105.63;4969499;28;20426;-46
2023/05/19 06:05:15;;;;;;;4.68;2.88;;;12.20;60.00;;;14.94;42.70;98106.09;4956135;28;20414;-48
2023/05/19 06:07:45;;;;;;;4.55;3.95;;;12.20;59.50;;;14.87;43.12;98106.00;4956187;28;20051;-47
2023/05/19 06:10:18;;;;;;;8.00;3.85;;;12.10;60.00;;;14.87;43.22;98102.47;4956380;28;20536;-49
2023/05/19 06:12:47;;;;;;;7.15;4.22;;;12.10;60.40;;;14.89;43.04;98105.81;4972430;28;20051;-46
2023/05/19 06:15:15;;;;;;;5.77;3.07;;;12.10;60.30;;;14.87;43.28;98111.34;4972588;28;20054;-48
2023/05/19 06:18:03;;;;;;;6.50;3.07;;;12.10;60.60;;;14.95;43.02;98100.56;4973705;28;20423;-47
2023/05/19 06:20:30;;;;;;;6.83;2.83;;;12.10;60.40;;;14.95;43.16;98105.94;4963667;28;20051;-48
2023/05/19 06:23:00;;;;;;;5.43;2.95;;;12.20;60.10;;;14.89;43.23;98095.94;4973681;28;20050;-45
2023/05/19 06:25:29;;;;;;;3.70;2.90;;;12.20;59.90;;;14.95;43.22;98105.09;4956768;28;20535;-47
2023/05/19 06:27:58;;;;;;;6.00;2.92;;;12.20;60.20;;;14.99;43.33;98100.22;4956059;28;20542;-49
2023/05/19 06:30:25;;;;;;;6.45;3.15;;;12.20;60.40;;;15.07;43.11;98103.66;4955989;28;20069;-49
2023/05/19 06:33:07;;;;;;;5.20;2.97;;;12.30;60.30;;;15.20;43.21;98096.88;4964194;28;20522;-45
2023/05/19 06:35:35;;;;;;;4.43;3.00;;;12.30;60.50;;;15.32;42.91;98103.50;4971959;28;20059;-47
2023/05/19 06:38:03;;;;;;;4.38;2.67;;;12.50;60.10;;;15.36;43.21;98105.63;4956484;28;20438;-45
2023/05/19 06:40:32;;;;;;;4.32;2.95;;;12.60;60.10;;;15.51;42.89;98107.53;4952582;28;20054;-48
2023/05/19 06:43:00;;;;;;;7.32;3.17;;;12.70;59.70;;;15.63;42.90;98097.19;4954883;28;20058;-50
2023/05/19 06:45:46;;;;;;;6.32;3.45;;;12.80;59.70;;;15.77;42.58;98104.44;4968904;28;20053;-46
2023/05/19 06:48:13;;;;;;;4.63;2.80;;;12.90;59.60;;;15.84;42.46;98097.34;4973287;28;20081;-49
2023/05/19 06:50:41;;;;;;;8.02;3.20;;;13.00;59.30;;;15.94;42.53;98099.75;4955417;28;20047;-47
2023/05/19 06:53:09;;;;;;;8.43;3.25;;;13.10;59.30;;;16.04;42.32;98102.16;4963595;28;20549;-50
2023/05/19 06:55:38;;;;;;;7.43;2.80;;;13.20;59.10;;;16.17;42.35;98101.50;4971398;28;20054;-50
2023/05/19 06:58:25;;;;;;;9.57;3.30;;;13.40;59.00;;;16.32;42.28;98094.25;4955277;28;20422;-46
2023/05/19 07:00:54;;;;;;;4.28;2.90;;;13.50;58.90;;;16.35;41.88;98101.97;4971535;28;20051;-46
2023/05/19 07:03:24;;;;;;;4.47;3.47;;;13.50;58.80;;;16.41;42.21;98095.84;4955590;28;20051;-44
2023/05/19 07:05:54;;;;;;;5.50;3.17;;;13.60;58.80;;;16.49;42.11;98098.41;4963509;28;20529;-48
2023/05/19 07:08:22;;;;;;;6.20;4.05;;;13.70;58.30;;;16.58;41.78;98092.94;4955535;28;20051;-49
2023/05/19 07:10:50;;;;;;;8.27;3.95;;;13.90;57.90;;;16.60;41.56;98094.41;4955300;28;20055;-46
2023/05/19 07:13:17;;;;;;;4.90;3.05;;;13.90;57.50;;;16.59;41.63;98095.44;4971354;28;20065;-48
2023/05/19 07:15:47;;;;;;;6.95;3.92;;;13.90;57.60;;;16.67;41.94;98095.34;4973090;28;20062;-46
2023/05/19 07:18:17;;;;;;;5.22;3.50;;;14.10;57.80;;;16.82;41.99;98092.63;4955291;28;20051;-45
2023/05/19 07:20:46;;;;;;;7.85;3.60;;;14.20;57.90;;;16.91;41.30;98094.19;4954732;28;20043;-46
2023/05/19 07:23:13;;;;;;;5.13;3.10;;;14.20;57.20;;;16.98;41.30;98091.53;4955343;28;20062;-48
2023/05/19 07:25:45;;;;;;;6.35;3.13;;;14.20;57.20;;;17.02;41.56;98092.84;4955191;28;20047;-45
2023/05/19 07:28:13;;;;;;;5.50;3.90;;;14.40;57.20;;;17.14;41.25;98090.47;4972622;28;20055;-45
2023/05/19 07:30:40;;;;;;;7.30;3.28;;;14.50;56.70;;;17.12;41.17;98089.84;4954546;28;20054;-45
2023/05/19 07:33:08;;;;;;;7.90;3.47;;;14.50;56.70;;;17.11;41.11;98083.59;4972453;28;20054;-45
2023/05/19 07:35:36;;;;;;;6.18;3.75;;;14.40;56.60;;;17.27;41.24;98089.75;4972728;28;20514;-45
2023/05/19 07:38:03;;;;;;;7.85;3.30;;;14.60;56.90;;;17.40;40.94;98078.28;4972637;28;20446;-46
2023/05/19 07:40:31;;;;;;;6.88;3.17;;;14.70;56.60;;;17.48;40.88;98080.84;4964480;28;20069;-45
2023/05/19 07:42:59;;;;;;;5.45;3.53;;;14.80;56.40;;;17.54;40.68;98087.28;4972308;28;20062;-45
2023/05/19 07:45:26;;;;;;;6.78;3.70;;;14.90;56.00;;;17.54;41.04;98085.44;4971785;28;20047;-46
2023/05/19 07:47:54;;;;;;;7.20;2.92;;;14.90;56.30;;;17.60;40.72;98079.28;4954133;28;20058;-46
2023/05/19 07:50:22;;;;;;;4.75;2.90;;;14.90;55.60;;;17.60;40.32;98078.44;4971715;28;20524;-46
2023/05/19 07:52:50;;;;;;;5.35;3.35;;;15.00;55.60;;;17.60;40.25;98081.97;4971208;28;20073;-45
2023/05/19 07:55:18;;;;;;;5.18;3.83;;;14.90;55.20;;;17.54;40.33;98076.53;4972092;28;20058;-45
2023/05/19 07:57:45;;;;;;;6.15;3.03;;;14.90;55.10;;;17.51;40.71;98069.69;4972294;28;20102;-47
2023/05/19 08:00:13;;;;;;;7.07;3.58;;;14.90;55.50;;;17.60;40.62;98067.66;4970744;28;20058;-46
2023/05/19 08:02:42;;;;;;;8.27;3.55;;;14.90;55.60;;;17.73;40.36;98075.03;4972407;28;20050;-45
2023/05/19 08:05:10;;;;;;;6.18;2.88;;;15.00;55.40;;;17.83;40.33;98073.63;4971726;28;20047;-46
2023/05/19 08:07:38;;;;;;;5.38;3.50;;;15.10;55.50;;;17.87;40.07;98066.88;4972261;28;20050;-46
2023/05/19 08:10:06;;;;;;;6.30;3.60;;;15.10;55.40;;;17.83;40.31;98068.25;4971734;28;20047;-48
2023/05/19 08:12:33;;;;;;;7.40;3.55;;;15.10;55.40;;;17.74;40.16;98047.91;4972044;28;20039;-46
2023/05/19 08:15:01;;;;;;;5.03;3.67;;;15.10;55.10;;;17.70;40.16;98066.31;4972217;28;20415;-47
2023/05/19 08:17:29;;;;;;;6.07;3.78;;;15.10;54.90;;;17.65;40.15;98055.28;4971915;28;20042;-46
2023/05/19 08:19:56;;;;;;;8.65;3.90;;;15.10;54.80;;;17.70;40.55;98058.22;4954353;28;20051;-45
2023/05/19 08:22:24;;;;;;;9.35;3.45;;;15.10;55.30;;;17.80;40.22;98063.25;4954610;28;20065;-46
2023/05/19 08:24:52;;;;;;;5.65;3.83;;;15.10;55.00;;;17.81;39.93;98051.44;4954901;28;20062;-45
2023/05/19 08:27:19;;;;;;;7.40;3.20;;;15.20;54.60;;;17.85;40.05;98049.22;4970570;28;20062;-44
2023/05/19 08:29:47;;;;;;;4.40;3.55;;;15.20;54.40;;;17.88;39.84;98048.84;4971861;28;20054;-47
2023/05/19 08:32:15;;;;;;;4.10;3.25;;;15.30;54.20;;;17.94;39.82;98048.03;4971730;28;20058;-47
2023/05/19 08:34:42;;;;;;;8.15;3.45;;;15.40;54.30;;;18.05;39.50;98044.78;4972433;28;20077;-46
2023/05/19 08:37:10;;;;;;;8.48;4.65;;;15.40;54.00;;;18.13;39.00;98043.81;4971315;28;20057;-49
2023/05/19 08:39:38;;;;;;;6.65;3.25;;;15.50;53.50;;;18.18;39.23;98049.41;4971556;28;20062;-47
2023/05/19 08:42:08;;;;;;;6.57;4.15;;;15.50;53.30;;;18.27;38.79;98042.81;4971340;28;20047;-46
2023/05/19 08:44:38;;;;;;;5.65;3.28;;;15.60;52.80;;;18.31;38.91;98037.88;4972080;28;20050;-46
2023/05/19 08:47:11;;;;;;;5.15;2.85;;;15.70;52.90;;;18.43;39.03;98047.03;4970399;28;20138;-45
2023/05/19 08:49:46;;;;;;;4.38;3.15;;;15.90;52.80;;;18.59;38.54;98045.84;4971338;28;20046;-46
2023/05/19 08:52:29;;;;;;;5.97;3.55;;;15.90;52.10;;;18.69;38.73;98043.59;4962573;28;20065;-45
2023/05/19 08:55:11;;;;;;;5.07;3.57;;;16.00;51.50;;;18.85;38.12;98046.97;4970869;28;20046;-44
2023/05/19 08:57:40;;;;;;;12.15;3.50;;;16.10;51.10;;;18.93;37.98;98043.25;4971525;28;20054;-46
2023/05/19 09:00:11;;;;;;;6.00;3.47;;;16.10;51.70;;;18.99;37.92;98048.66;4971718;28;20062;-48
2023/05/19 09:02:39;;;;;;;8.00;4.32;;;16.20;51.50;;;19.02;37.64;98042.88;4964587;28;20062;-45
2023/05/19 09:05:26;;;;;;;6.10;3.10;;;16.30;51.10;;;19.07;37.82;98043.06;4974555;28;20049;-46
2023/05/19 09:07:55;;;;;;;9.10;3.47;;;16.30;52.20;;;19.08;37.61;98036.63;4973874;28;20035;-48
2023/05/19 09:10:23;;;;;;;7.57;3.90;;;16.30;51.30;;;19.10;37.72;98044.53;4975001;28;20038;-45
2023/05/19 09:12:52;;;;;;;6.35;3.50;;;16.30;51.40;;;19.15;37.23;98039.31;4975294;28;20050;-48
2023/05/19 09:15:24;;;;;;;4.90;3.05;;;16.30;51.00;;;19.19;37.40;98043.31;4974843;28;20526;-46
2023/05/19 09:18:06;;;;;;;8.35;3.80;;;16.40;50.80;;;19.27;37.43;98040.41;4973908;28;20399;-47
2023/05/19 09:20:40;;;;;;;7.97;3.25;;;16.40;50.70;;;19.32;36.96;98044.34;4974825;28;20050;-45
2023/05/19 09:23:16;;;;;;;7.43;3.45;;;16.50;50.40;;;19.36;36.93;98037.47;4974729;28;20439;-47
2023/05/19 09:25:49;;;;;;;7.18;3.88;;;16.50;50.30;;;19.40;37.07;98036.03;4965937;28;20070;-49
2023/05/19 09:28:32;;;;;;;7.07;3.40;;;16.50;50.40;;;19.42;36.93;98039.34;4975044;28;20430;-47
2023/05/19 09:31:07;;;;;;;6.47;3.97;;;16.60;49.10;;;19.42;37.09;98037.47;4974708;28;20051;-47
2023/05/19 09:33:38;;;;;;;6.18;3.80;;;16.50;50.70;;;19.36;36.98;98046.41;4967425;28;20495;-48
2023/05/19 09:36:07;;;;;;;5.65;3.70;;;16.50;50.70;;;19.36;37.01;98040.19;4974765;28;20062;-49
2023/05/19 09:38:36;;;;;;;6.80;3.83;;;16.50;50.40;;;19.33;36.94;98032.47;4967583;28;20057;-45
2023/05/19 09:41:08;;;;;;;5.68;3.45;;;16.40;50.40;;;19.36;36.65;98037.47;4971238;28;20396;-46
2023/05/19 09:43:35;;;;;;;7.40;3.25;;;16.40;50.30;;;19.39;36.74;98045.19;4973698;28;20050;-49
2023/05/19 09:46:10;;;;;;;5.32;3.50;;;16.40;50.30;;;19.38;36.61;98040.78;4974494;28;20046;-49
2023/05/19 09:48:41;;;;;;;9.80;4.45;;;16.50;50.00;;;19.39;36.56;98032.50;4967952;28;20054;-47
2023/05/19 09:51:09;;;;;;;6.07;3.17;;;16.50;50.10;;;19.37;36.56;98034.56;4973135;28;20055;-49
2023/05/19 09:53:37;;;;;;;8.77;3.85;;;16.50;49.70;;;19.36;36.58;98034.78;4974446;28;20054;-50
2023/05/19 09:56:08;;;;;;;6.07;3.60;;;16.50;50.00;;;19.39;36.60;98032.50;4974392;28;20053;-46
2023/05/19 09:58:36;;;;;;;7.93;3.97;;;16.50;50.00;;;19.43;36.75;98032.91;4967216;28;20055;-46
2023/05/19 10:01:05;;;;;;;7.38;4.40;;;16.50;50.40;;;19.47;36.83;98032.28;4974096;28;20088;-45
2023/05/19 10:03:33;;;;;;;7.32;3.47;;;16.50;50.60;;;19.52;36.80;98026.25;4973211;28;20050;-47
2023/05/19 10:06:02;;;;;;;11.25;3.75;;;16.60;50.40;;;19.55;36.67;98030.41;4974185;28;20047;-45
2023/05/19 10:08:32;;;;;;;6.75;3.42;;;16.60;50.20;;;19.57;36.27;98029.16;4974271;28;20496;-45
2023/05/19 10:11:00;;;;;;;8.70;3.60;;;16.60;49.70;;;19.58;36.69;98032.69;4973950;28;20039;-45
2023/05/19 10:13:29;;;;;;;6.80;3.13;;;16.70;50.20;;;19.61;36.72;98019.59;4972551;28;20423;-47
2023/05/19 10:15:57;;;;;;;6.53;3.80;;;16.80;50.20;;;19.65;36.91;98025.41;4956058;28;20043;-46
2023/05/19 10:18:28;;;;;;;5.10;2.95;;;16.80;50.10;;;19.68;36.45;98027.69;4957217;28;20054;-47
2023/05/19 10:20:57;;;;;;;6.03;3.60;;;16.80;49.70;;;19.61;36.49;98025.00;4973758;28;20054;-46
2023/05/19 10:23:25;;;;;;;5.50;3.22;;;16.80;49.30;;;19.60;36.61;98025.19;4972655;28;20686;-47
2023/05/19 10:25:58;;;;;;;5.85;2.95;;;16.90;49.50;;;19.64;36.68;98029.16;4973816;28;20039;-45
2023/05/19 10:28:35;;;;;;;7.95;3.20;;;16.90;49.50;;;19.71;36.48;98021.03;4973762;28;20055;-50
2023/05/19 10:31:08;;;;;;;6.22;3.25;;;16.90;48.90;;;19.73;36.06;98019.81;4972400;28;20480;-44
2023/05/19 10:34:03;;;;;;;5.60;3.30;;;16.90;48.90;;;19.83;36.17;98011.25;4964624;28;20047;-47
2023/05/19 10:37:12;;;;;;;6.03;3.60;;;16.90;48.60;;;19.81;36.08;98010.66;4973769;28;20047;-46